Time;durP1;ratioP1;P1;durP2;ratioP2;P2;SDS_P1;SDS_P2;PMS_P1;PMS_P2;Temp;Humidity;BMP_temperature;BMP_pressure;BME280_temperature;BME280_humidity;BME280_pressure;Samples;Min_cycle;Max_cycle;Signal;HPM_P1;HPM_P2
2020/12/18 00:01:29;;;;;;;7.07;6.43;;;28.90;99.90;;;;;;5135458;27;20031;-59
2020/12/18 00:03:57;;;;;;;6.55;6.15;;;28.40;99.90;;;;;;5135639;27;20411;-58
2020/12/18 00:06:32;;;;;;;7.15;6.50;;;27.80;99.90;;;;;;5135036;27;20237;-58
2020/12/18 00:09:00;;;;;;;7.22;6.35;;;27.10;99.90;;;;;;5116731;27;20019;-59
2020/12/18 00:11:29;;;;;;;8.90;7.40;;;26.40;99.90;;;;;;5135140;27;20047;-58
2020/12/18 00:13:56;;;;;;;8.90;8.30;;;26.10;99.90;;;;;;5135243;27;20068;-58
2020/12/18 00:16:26;;;;;;;9.80;8.90;;;25.90;99.90;;;;;;5135345;27;20051;-60
2020/12/18 00:18:54;;;;;;;10.57;9.88;;;25.80;99.90;;;;;;5098614;27;20425;-59
2020/12/18 00:21:23;;;;;;;10.20;9.57;;;25.70;99.90;;;;;;5116331;27;20038;-59
2020/12/18 00:23:52;;;;;;;9.25;8.65;;;25.70;99.90;;;;;;5135168;27;20053;-59
2020/12/18 00:26:20;;;;;;;9.23;8.63;;;25.80;99.90;;;;;;5134725;27;20027;-59
2020/12/18 00:28:48;;;;;;;9.63;8.93;;;25.80;99.90;;;;;;5134905;27;20079;-58
2020/12/18 00:31:16;;;;;;;9.05;8.55;;;25.80;99.90;;;;;;5134563;27;20071;-59
2020/12/18 00:33:44;;;;;;;9.20;8.60;;;25.70;99.90;;;;;;5134777;27;20139;-59
2020/12/18 00:36:12;;;;;;;9.50;9.00;;;25.60;99.90;;;;;;5134686;27;20564;-59
2020/12/18 00:38:40;;;;;;;9.35;8.75;;;25.70;99.90;;;;;;5134673;27;20471;-58
2020/12/18 00:41:11;;;;;;;8.50;8.02;;;25.70;99.90;;;;;;5134572;27;20360;-58
2020/12/18 00:43:39;;;;;;;8.65;8.15;;;25.60;99.90;;;;;;5134289;27;20047;-59
2020/12/18 00:46:07;;;;;;;9.05;8.65;;;25.60;99.90;;;;;;5134589;27;20027;-58
2020/12/18 00:48:35;;;;;;;9.32;8.73;;;25.60;99.90;;;;;;5134288;27;20045;-59
2020/12/18 00:51:03;;;;;;;9.10;8.50;;;25.50;99.90;;;;;;5134537;27;20019;-54
2020/12/18 00:53:33;;;;;;;10.13;9.43;;;25.60;99.90;;;;;;5134413;27;20035;-59
2020/12/18 00:56:06;;;;;;;8.98;8.40;;;25.60;99.90;;;;;;5134525;27;20072;-58
2020/12/18 00:58:34;;;;;;;8.80;8.23;;;25.70;99.90;;;;;;5134473;27;20019;-58
2020/12/18 01:01:03;;;;;;;8.90;8.40;;;25.60;99.90;;;;;;5134575;27;20046;-59
2020/12/18 01:03:31;;;;;;;8.68;8.18;;;25.60;99.90;;;;;;5134286;27;20106;-59
2020/12/18 01:05:59;;;;;;;8.48;7.88;;;25.60;99.90;;;;;;5134594;27;20031;-59
2020/12/18 01:08:27;;;;;;;8.00;7.70;;;25.70;99.90;;;;;;5098450;27;20067;-59
2020/12/18 01:10:55;;;;;;;8.00;7.70;;;25.70;99.90;;;;;;5134323;27;20015;-60
2020/12/18 01:13:23;;;;;;;7.10;6.70;;;25.80;99.90;;;;;;5134201;27;20038;-60
2020/12/18 01:15:50;;;;;;;7.28;6.88;;;25.90;99.90;;;;;;5134282;27;20034;-59
2020/12/18 01:18:18;;;;;;;6.43;6.13;;;26.00;99.90;;;;;;5134490;27;20050;-62
2020/12/18 01:20:47;;;;;;;6.80;6.40;;;26.10;99.90;;;;;;5134302;27;20115;-60
2020/12/18 01:23:16;;;;;;;6.03;5.72;;;26.00;99.90;;;;;;5134440;27;20023;-61
2020/12/18 01:25:44;;;;;;;6.10;5.90;;;26.10;99.90;;;;;;5134266;27;20371;-61
2020/12/18 01:28:12;;;;;;;6.43;6.10;;;26.10;99.90;;;;;;5134192;27;20024;-60
2020/12/18 01:30:40;;;;;;;5.70;5.40;;;26.10;99.90;;;;;;5133879;27;20031;-59
2020/12/18 01:33:08;;;;;;;5.85;5.40;;;26.10;99.90;;;;;;5134054;27;20019;-60
2020/12/18 01:35:36;;;;;;;5.78;5.47;;;26.20;99.90;;;;;;5133770;27;20440;-59
2020/12/18 01:38:04;;;;;;;6.05;5.75;;;26.30;99.90;;;;;;5133854;27;20019;-60
2020/12/18 01:40:32;;;;;;;5.80;5.40;;;26.50;99.90;;;;;;5115320;27;20024;-60
2020/12/18 01:43:02;;;;;;;6.53;6.20;;;26.60;99.90;;;;;;5133756;27;20026;-59
2020/12/18 01:45:30;;;;;;;6.25;5.90;;;26.90;99.90;;;;;;5134046;28;20027;-60
2020/12/18 01:47:58;;;;;;;5.25;5.00;;;27.10;99.90;;;;;;5133465;28;20387;-59
2020/12/18 01:50:26;;;;;;;5.18;4.93;;;27.50;99.90;;;;;;5133895;28;20034;-60
2020/12/18 01:52:54;;;;;;;5.88;5.57;;;27.70;99.90;;;;;;5133855;28;20046;-59
2020/12/18 01:55:23;;;;;;;5.30;5.10;;;27.90;99.90;;;;;;5133910;28;20494;-60
2020/12/18 01:57:53;;;;;;;4.70;4.50;;;28.20;99.90;;;;;;5133846;28;20037;-59
2020/12/18 02:00:22;;;;;;;5.60;5.30;;;28.40;99.90;;;;;;5133982;28;20057;-59
2020/12/18 02:02:50;;;;;;;4.82;4.60;;;28.60;99.90;;;;;;5133965;27;20118;-59
2020/12/18 02:05:18;;;;;;;5.30;4.93;;;28.70;99.90;;;;;;5134183;28;20068;-60
2020/12/18 02:08:02;;;;;;;4.45;4.10;;;28.90;99.90;;;;;;5133869;28;20100;-58
2020/12/18 02:10:30;;;;;;;5.03;4.72;;;29.10;99.90;;;;;;5135146;27;20023;-57
2020/12/18 02:12:58;;;;;;;4.72;4.53;;;29.40;99.90;;;;;;5137583;27;20047;-58
2020/12/18 02:15:26;;;;;;;4.88;4.68;;;29.70;99.90;;;;;;5137118;27;20033;-58
2020/12/18 02:17:54;;;;;;;4.68;4.38;;;29.80;99.90;;;;;;5137304;27;20027;-60
2020/12/18 02:20:25;;;;;;;4.75;4.55;;;30.00;99.90;;;;;;5137144;27;20043;-58
2020/12/18 02:22:53;;;;;;;4.88;4.65;;;30.20;99.90;;;;;;5137282;27;20412;-58
2020/12/18 02:25:24;;;;;;;4.60;4.40;;;30.30;99.90;;;;;;5136916;27;20030;-59
2020/12/18 02:27:52;;;;;;;4.30;4.10;;;30.50;99.90;;;;;;5137968;27;20116;-59
2020/12/18 02:30:20;;;;;;;4.85;4.57;;;30.20;99.90;;;;;;5137546;27;20030;-59
2020/12/18 02:32:48;;;;;;;5.15;4.85;;;30.30;99.90;;;;;;5137507;27;20030;-59
2020/12/18 02:35:15;;;;;;;4.60;4.50;;;30.20;99.90;;;;;;5137518;27;20536;-59
2020/12/18 02:37:43;;;;;;;4.10;3.90;;;30.10;99.90;;;;;;5137392;27;20027;-58
2020/12/18 02:40:11;;;;;;;5.40;5.00;;;30.20;99.90;;;;;;5137367;27;20484;-57
2020/12/18 02:42:39;;;;;;;4.57;4.38;;;30.30;99.90;;;;;;5119371;27;20047;-57
2020/12/18 02:45:07;;;;;;;5.13;4.93;;;30.40;99.90;;;;;;5137413;27;20068;-56
2020/12/18 02:47:35;;;;;;;5.30;5.00;;;30.50;99.90;;;;;;5137076;27;20027;-57
2020/12/18 02:50:03;;;;;;;5.60;5.30;;;30.50;99.90;;;;;;5137219;27;20543;-57
2020/12/18 02:52:31;;;;;;;5.28;4.78;;;30.70;99.90;;;;;;5137174;27;20031;-58
2020/12/18 02:54:58;;;;;;;5.10;4.80;;;30.70;99.90;;;;;;5137354;27;20059;-58
2020/12/18 02:57:26;;;;;;;4.70;4.50;;;30.70;99.90;;;;;;5137400;27;20469;-57
2020/12/18 02:59:54;;;;;;;4.45;4.25;;;30.80;99.90;;;;;;5136977;27;20471;-57
2020/12/18 03:02:22;;;;;;;4.90;4.70;;;31.00;99.90;;;;;;5136977;27;20022;-57
2020/12/18 03:04:50;;;;;;;4.82;4.57;;;31.30;99.90;;;;;;5137193;27;20015;-55
2020/12/18 03:07:18;;;;;;;5.28;4.90;;;31.60;99.90;;;;;;5136669;27;20058;-55
2020/12/18 03:09:45;;;;;;;4.70;4.50;;;31.80;99.90;;;;;;5136825;27;20019;-57
2020/12/18 03:12:13;;;;;;;4.63;4.40;;;31.80;99.80;;;;;;5136736;27;20023;-58
2020/12/18 03:14:41;;;;;;;4.60;4.40;;;31.70;99.90;;;;;;5118533;27;20494;-57
2020/12/18 03:17:09;;;;;;;4.60;4.40;;;31.50;99.90;;;;;;5136769;27;20463;-57
2020/12/18 03:19:36;;;;;;;4.78;4.57;;;31.50;99.40;;;;;;5136886;27;20105;-57
2020/12/18 03:22:05;;;;;;;4.25;4.05;;;31.40;99.80;;;;;;5135505;27;20020;-58
2020/12/18 03:24:33;;;;;;;4.50;4.40;;;31.30;99.80;;;;;;5136895;27;20535;-57
2020/12/18 03:27:00;;;;;;;4.97;4.50;;;31.30;99.90;;;;;;5136547;27;20038;-57
2020/12/18 03:29:28;;;;;;;4.82;4.50;;;31.30;99.90;;;;;;5136895;27;20027;-59
2020/12/18 03:31:56;;;;;;;4.70;4.50;;;31.20;99.90;;;;;;5136641;27;20024;-60
2020/12/18 03:34:24;;;;;;;5.20;4.80;;;31.10;99.80;;;;;;5136542;27;20027;-59
2020/12/18 03:36:51;;;;;;;4.90;4.70;;;31.10;99.70;;;;;;5136522;27;20072;-58
2020/12/18 03:39:19;;;;;;;4.70;4.40;;;31.10;99.90;;;;;;5136557;27;20023;-59
2020/12/18 03:41:48;;;;;;;4.10;3.95;;;31.20;99.90;;;;;;5136470;27;20106;-60
2020/12/18 03:44:16;;;;;;;4.70;4.50;;;31.30;99.90;;;;;;5136433;27;20420;-59
2020/12/18 03:46:44;;;;;;;4.20;4.10;;;31.30;99.90;;;;;;5136460;27;20026;-59
2020/12/18 03:49:12;;;;;;;4.10;4.00;;;31.00;99.90;;;;;;5136072;27;20110;-59
2020/12/18 03:51:40;;;;;;;4.13;3.92;;;30.80;99.90;;;;;;5135859;27;20019;-59
2020/12/18 03:54:08;;;;;;;4.85;4.60;;;30.90;99.90;;;;;;5135839;27;20110;-60
2020/12/18 03:56:36;;;;;;;3.90;3.70;;;30.90;99.90;;;;;;5135499;27;20023;-59
2020/12/18 03:59:04;;;;;;;4.88;4.68;;;30.80;99.90;;;;;;5135840;27;20103;-59
2020/12/18 04:01:32;;;;;;;4.50;4.30;;;30.80;99.90;;;;;;5135773;27;20360;-60
2020/12/18 04:04:00;;;;;;;4.60;4.38;;;30.80;99.90;;;;;;5135624;27;20037;-59
2020/12/18 04:06:28;;;;;;;4.50;4.20;;;30.70;99.90;;;;;;5135280;27;20074;-58
2020/12/18 04:08:56;;;;;;;4.50;4.30;;;30.50;99.90;;;;;;5099499;27;20038;-59
2020/12/18 04:11:24;;;;;;;4.75;4.45;;;30.40;99.90;;;;;;5135777;27;20027;-58
2020/12/18 04:13:52;;;;;;;4.60;4.40;;;30.40;99.90;;;;;;5135079;27;20023;-58
2020/12/18 04:16:20;;;;;;;4.80;4.60;;;30.40;99.90;;;;;;5116312;27;20023;-58
2020/12/18 04:18:50;;;;;;;4.05;3.92;;;30.40;99.90;;;;;;5135173;27;20028;-58
2020/12/18 04:21:18;;;;;;;4.70;4.50;;;30.40;99.90;;;;;;5135019;27;20027;-60
2020/12/18 04:23:45;;;;;;;4.57;4.30;;;30.50;99.90;;;;;;5134898;27;20035;-57
2020/12/18 04:26:13;;;;;;;4.50;4.20;;;30.40;99.90;;;;;;5134945;27;20023;-58
2020/12/18 04:28:41;;;;;;;4.20;4.00;;;30.20;99.90;;;;;;5134938;27;20023;-58
2020/12/18 04:31:09;;;;;;;7.80;4.40;;;30.10;99.90;;;;;;5134940;27;20027;-58
2020/12/18 04:33:37;;;;;;;4.72;4.47;;;30.00;99.90;;;;;;5098365;27;20127;-58
2020/12/18 04:36:05;;;;;;;4.28;3.97;;;29.90;99.90;;;;;;5135021;27;20494;-59
2020/12/18 04:38:33;;;;;;;4.00;3.80;;;29.70;99.90;;;;;;5134438;27;20091;-59
2020/12/18 04:41:02;;;;;;;3.08;2.97;;;29.50;99.90;;;;;;5134455;27;20034;-58
2020/12/18 04:43:30;;;;;;;4.30;4.10;;;29.30;99.90;;;;;;5134470;27;20050;-50
2020/12/18 04:45:59;;;;;;;5.38;5.07;;;29.30;99.90;;;;;;5116003;27;20026;-58
2020/12/18 04:48:29;;;;;;;5.30;5.10;;;29.20;99.90;;;;;;5134355;27;20046;-55
2020/12/18 04:50:58;;;;;;;4.30;4.10;;;29.10;99.90;;;;;;5134763;27;20038;-57
2020/12/18 04:53:29;;;;;;;5.25;4.90;;;29.00;99.90;;;;;;5134527;27;20027;-58
2020/12/18 04:56:03;;;;;;;4.90;4.70;;;28.90;99.90;;;;;;5134632;27;20035;-58
2020/12/18 04:58:30;;;;;;;5.20;4.80;;;28.80;99.90;;;;;;5134474;27;20063;-59
2020/12/18 05:01:00;;;;;;;4.50;4.30;;;28.80;99.90;;;;;;5134642;27;20046;-58
2020/12/18 05:03:33;;;;;;;5.00;4.70;;;28.70;99.90;;;;;;5134080;27;20495;-58
2020/12/18 05:06:03;;;;;;;5.18;4.90;;;28.60;99.90;;;;;;5134523;27;20030;-57
2020/12/18 05:08:32;;;;;;;6.00;5.70;;;28.40;99.90;;;;;;5116438;27;20039;-57
2020/12/18 05:11:14;;;;;;;5.20;4.80;;;28.30;99.90;;;;;;5134316;27;20352;-57
2020/12/18 05:13:45;;;;;;;5.90;5.60;;;28.20;99.90;;;;;;5134161;27;20384;-58
2020/12/18 05:16:13;;;;;;;5.80;5.60;;;28.00;99.90;;;;;;5134016;27;20377;-58
2020/12/18 05:18:41;;;;;;;5.10;4.70;;;27.80;99.90;;;;;;5133779;27;20399;-58
2020/12/18 05:21:09;;;;;;;5.55;5.35;;;27.70;99.90;;;;;;5133804;27;20027;-59
2020/12/18 05:23:38;;;;;;;6.10;5.80;;;27.50;99.90;;;;;;5133706;27;20027;-58
2020/12/18 05:26:08;;;;;;;6.45;6.25;;;27.40;99.90;;;;;;5133837;27;20019;-57
2020/12/18 05:28:42;;;;;;;6.10;5.80;;;27.30;99.90;;;;;;5133732;27;20045;-60
2020/12/18 05:31:15;;;;;;;6.63;6.13;;;27.20;99.90;;;;;;5134115;27;20035;-60
2020/12/18 05:33:43;;;;;;;7.85;7.15;;;27.10;99.90;;;;;;5097691;27;20065;-60
2020/12/18 05:36:11;;;;;;;6.70;6.50;;;27.10;99.90;;;;;;5133862;27;20026;-59
2020/12/18 05:38:39;;;;;;;6.50;6.20;;;27.00;99.90;;;;;;5133524;27;20054;-58
2020/12/18 05:41:08;;;;;;;7.15;6.70;;;27.00;99.90;;;;;;5132225;27;20030;-58
2020/12/18 05:43:42;;;;;;;7.60;7.10;;;27.10;99.90;;;;;;5132462;27;20031;-58
2020/12/18 05:46:22;;;;;;;6.97;6.43;;;27.00;99.90;;;;;;5131506;27;20015;-57
2020/12/18 05:49:05;;;;;;;6.40;5.93;;;27.10;99.90;;;;;;5097007;28;20027;-58
2020/12/18 05:51:41;;;;;;;7.50;7.20;;;27.10;99.90;;;;;;5132334;28;20065;-59
2020/12/18 05:54:16;;;;;;;7.63;7.32;;;27.00;99.90;;;;;;5132433;28;20030;-60
2020/12/18 05:56:46;;;;;;;7.60;7.00;;;26.90;99.90;;;;;;5133658;28;20019;-59
2020/12/18 05:59:16;;;;;;;6.67;6.37;;;26.70;99.90;;;;;;5133416;28;20027;-59
2020/12/18 06:01:48;;;;;;;7.50;7.10;;;26.70;99.90;;;;;;5133522;28;20031;-58
2020/12/18 06:04:20;;;;;;;8.25;7.72;;;26.70;99.90;;;;;;5133323;27;20422;-59
2020/12/18 06:06:52;;;;;;;7.65;7.10;;;26.70;99.90;;;;;;5133180;28;20039;-59
2020/12/18 06:09:22;;;;;;;7.35;6.75;;;26.70;99.90;;;;;;5133710;28;20028;-59
2020/12/18 06:11:49;;;;;;;7.20;6.80;;;26.70;99.90;;;;;;5133321;28;20084;-59
2020/12/18 06:14:18;;;;;;;7.90;7.25;;;26.70;99.90;;;;;;5114920;28;20299;-59
2020/12/18 06:16:51;;;;;;;6.88;6.57;;;26.70;99.90;;;;;;5133320;28;20035;-60
2020/12/18 06:19:23;;;;;;;7.30;6.90;;;26.70;99.90;;;;;;5133626;28;20106;-59
2020/12/18 06:21:55;;;;;;;7.97;7.47;;;26.70;99.90;;;;;;5133129;28;20027;-59
2020/12/18 06:24:23;;;;;;;7.00;6.60;;;26.70;99.90;;;;;;5114840;28;20042;-59
2020/12/18 06:26:58;;;;;;;7.00;6.50;;;26.60;99.90;;;;;;5133460;28;20019;-59
2020/12/18 06:29:27;;;;;;;7.70;7.15;;;26.50;99.90;;;;;;5133262;28;20047;-59
2020/12/18 06:31:54;;;;;;;8.20;7.80;;;26.50;99.90;;;;;;5133160;28;20034;-59
2020/12/18 06:34:28;;;;;;;8.20;7.60;;;26.50;99.90;;;;;;5133403;28;20042;-60
2020/12/18 06:36:58;;;;;;;7.32;6.82;;;26.60;99.90;;;;;;5097951;28;20035;-59
2020/12/18 06:39:33;;;;;;;;;;;26.60;99.90;;;;;;5133561;28;20024;-56
2020/12/18 06:42:23;;;;;;;9.20;8.43;;;26.60;99.90;;;;;;5080620;28;19914;-59
2020/12/18 06:44:57;;;;;;;16.02;7.43;;;26.60;99.90;;;;;;5090078;28;20028;-61
2020/12/18 06:47:31;;;;;;;8.10;7.28;;;26.60;99.90;;;;;;5089964;28;20035;-59
2020/12/18 06:50:06;;;;;;;11.00;8.00;;;27.00;99.90;;;;;;5073360;28;20040;-61
2020/12/18 06:52:54;;;;;;;10.18;7.05;;;27.60;99.90;;;;;;5089835;28;20074;-58
2020/12/18 06:55:37;;;;;;;9.05;7.30;;;28.60;99.90;;;;;;5069140;28;20036;-59
2020/12/18 06:58:11;;;;;;;10.25;7.20;;;29.00;99.90;;;;;;5072912;28;20029;-58
2020/12/18 07:01:00;;;;;;;9.18;6.93;;;29.10;99.90;;;;;;5073163;28;20061;-58
2020/12/18 07:03:49;;;;;;;11.27;7.28;;;28.80;99.90;;;;;;5052838;28;20106;-63
2020/12/18 07:06:27;;;;;;;7.75;6.93;;;28.20;99.90;;;;;;5013047;28;20037;-58
2020/12/18 07:08:57;;;;;;;10.75;6.95;;;27.60;99.90;;;;;;5013340;28;20052;-58
2020/12/18 07:11:29;;;;;;;11.67;7.87;;;27.10;99.90;;;;;;5013248;28;20042;-58
2020/12/18 07:14:03;;;;;;;10.50;7.40;;;26.70;99.90;;;;;;5013174;28;20486;-58
2020/12/18 07:16:31;;;;;;;7.13;6.20;;;26.30;99.90;;;;;;5029197;28;20462;-60
2020/12/18 07:19:06;;;;;;;9.25;6.78;;;26.10;99.90;;;;;;5032972;28;20072;-58
2020/12/18 07:21:33;;;;;;;8.68;7.80;;;26.00;99.90;;;;;;5032826;28;20049;-58
2020/12/18 07:24:01;;;;;;;8.50;7.80;;;25.80;99.90;;;;;;5032694;28;20056;-58
2020/12/18 07:26:29;;;;;;;7.95;7.35;;;25.60;99.90;;;;;;5044325;28;20037;-59
2020/12/18 07:28:57;;;;;;;8.18;7.47;;;25.60;99.90;;;;;;5052662;28;20131;-59
2020/12/18 07:31:26;;;;;;;8.95;8.13;;;25.50;99.90;;;;;;5035882;28;20033;-58
2020/12/18 07:33:59;;;;;;;8.50;7.70;;;25.30;99.90;;;;;;5058484;28;20504;-58
2020/12/18 07:36:30;;;;;;;8.15;7.55;;;25.30;99.90;;;;;;5085083;27;20066;-58
2020/12/18 07:38:59;;;;;;;9.20;8.63;;;25.40;99.90;;;;;;5136131;27;20024;-58
2020/12/18 07:41:31;;;;;;;9.90;8.98;;;25.40;99.90;;;;;;5135758;27;20058;-59
2020/12/18 07:44:07;;;;;;;13.15;9.55;;;25.50;99.90;;;;;;5136133;27;20030;-59
2020/12/18 07:46:36;;;;;;;13.55;10.48;;;25.50;99.90;;;;;;5099914;27;20435;-58
2020/12/18 07:49:11;;;;;;;11.80;10.57;;;25.50;99.90;;;;;;5135483;27;20020;-59
2020/12/18 07:51:40;;;;;;;15.48;10.82;;;25.50;99.90;;;;;;5116480;27;20046;-59
2020/12/18 07:54:08;;;;;;;11.35;10.10;;;25.60;99.90;;;;;;5135649;27;20505;-59
2020/12/18 07:56:36;;;;;;;13.02;10.70;;;25.80;99.90;;;;;;5135523;27;20516;-59
2020/12/18 07:59:12;;;;;;;14.52;11.35;;;25.80;99.90;;;;;;5072074;28;20032;-58
2020/12/18 08:01:40;;;;;;;15.75;12.07;;;25.70;99.90;;;;;;5071901;28;20036;-58
2020/12/18 08:04:13;;;;;;;18.13;11.35;;;25.60;99.90;;;;;;5072191;28;20374;-59
2020/12/18 08:06:43;;;;;;;17.35;11.52;;;25.40;99.90;;;;;;5071775;28;20052;-58
2020/12/18 08:09:19;;;;;;;16.92;11.50;;;25.40;99.90;;;;;;5071173;28;20044;-61
2020/12/18 08:11:50;;;;;;;16.85;10.80;;;25.30;99.90;;;;;;5071883;28;20040;-59
2020/12/18 08:14:19;;;;;;;21.02;11.32;;;25.20;99.90;;;;;;5071796;28;20029;-59
2020/12/18 08:16:46;;;;;;;20.15;11.88;;;25.00;99.90;;;;;;5071707;28;20100;-58
2020/12/18 08:19:14;;;;;;;26.25;12.65;;;24.80;99.90;;;;;;5071515;28;20039;-58
2020/12/18 08:21:47;;;;;;;20.08;12.02;;;24.80;99.90;;;;;;5071668;28;20036;-59
2020/12/18 08:24:38;;;;;;;19.90;11.90;;;24.70;99.90;;;;;;5071617;28;20090;-59
2020/12/18 08:27:15;;;;;;;23.35;12.98;;;24.60;99.90;;;;;;5051521;28;20121;-58
2020/12/18 08:29:44;;;;;;;24.48;13.30;;;24.50;99.90;;;;;;5066209;28;20036;-59
2020/12/18 08:32:24;;;;;;;27.85;13.65;;;24.40;99.90;;;;;;5091403;28;20556;-58
2020/12/18 08:34:58;;;;;;;23.67;13.07;;;24.40;99.90;;;;;;5091538;28;20016;-59
2020/12/18 08:37:26;;;;;;;25.80;14.50;;;24.40;99.90;;;;;;5091442;28;20080;-59
2020/12/18 08:39:54;;;;;;;22.55;13.55;;;24.30;99.90;;;;;;5091305;28;20506;-58
2020/12/18 08:42:22;;;;;;;24.73;13.38;;;24.20;99.90;;;;;;5091242;28;20059;-59
2020/12/18 08:44:50;;;;;;;21.77;13.50;;;24.20;99.90;;;;;;5091162;28;20032;-58
2020/12/18 08:47:21;;;;;;;22.70;12.80;;;24.10;99.90;;;;;;5091132;28;20035;-58
2020/12/18 08:49:50;;;;;;;22.38;13.00;;;24.00;99.90;;;;;;5091488;28;20492;-59
2020/12/18 08:52:24;;;;;;;24.00;14.20;;;23.90;99.90;;;;;;5074693;28;20032;-59
2020/12/18 08:55:07;;;;;;;29.33;13.80;;;23.90;99.90;;;;;;5091278;28;20028;-59
2020/12/18 08:57:39;;;;;;;33.92;15.57;;;23.80;99.90;;;;;;5091814;28;20546;-59
2020/12/18 09:00:19;;;;;;;35.00;16.52;;;23.70;99.90;;;;;;5093395;28;20380;-59
2020/12/18 09:02:58;;;;;;;40.15;17.30;;;23.60;99.90;;;;;;5093310;28;20039;-59
2020/12/18 09:05:33;;;;;;;29.50;15.35;;;23.50;99.90;;;;;;5092803;28;20055;-59
2020/12/18 09:08:19;;;;;;;30.58;14.50;;;23.40;99.90;;;;;;5107480;28;20099;-58
2020/12/18 09:10:56;;;;;;;32.17;16.55;;;23.30;99.90;;;;;;5113568;28;20039;-59
2020/12/18 09:13:29;;;;;;;36.50;16.38;;;23.30;99.90;;;;;;5112220;28;20032;-59
2020/12/18 09:16:08;;;;;;;29.58;15.50;;;23.20;99.90;;;;;;5113476;28;20032;-58
2020/12/18 09:18:38;;;;;;;38.40;16.35;;;23.10;99.90;;;;;;5113376;28;20030;-59
2020/12/18 09:21:14;;;;;;;32.63;16.20;;;23.00;99.90;;;;;;5113002;28;20182;-58
2020/12/18 09:23:43;;;;;;;36.72;17.08;;;22.90;99.90;;;;;;5113233;28;20024;-58
2020/12/18 09:26:11;;;;;;;31.30;16.58;;;22.80;99.90;;;;;;5113543;28;20035;-58
2020/12/18 09:28:43;;;;;;;31.77;17.08;;;22.80;99.90;;;;;;5113181;28;20472;-59
2020/12/18 09:31:11;;;;;;;36.53;15.02;;;22.80;99.90;;;;;;5113688;28;20030;-59
2020/12/18 09:33:40;;;;;;;32.35;16.10;;;22.80;99.90;;;;;;5113096;28;20024;-59
2020/12/18 09:36:12;;;;;;;30.80;16.13;;;22.70;99.90;;;;;;5113238;28;20027;-58
2020/12/18 09:38:42;;;;;;;32.92;15.45;;;22.70;99.90;;;;;;5113159;28;20084;-58
2020/12/18 09:41:18;;;;;;;29.08;15.30;;;22.70;99.90;;;;;;5113089;28;20096;-60
2020/12/18 09:43:46;;;;;;;33.33;16.17;;;22.60;99.90;;;;;;5113336;28;20127;-58
2020/12/18 09:46:15;;;;;;;27.63;14.95;;;22.70;99.90;;;;;;5113162;28;20471;-59
2020/12/18 09:48:47;;;;;;;31.77;14.90;;;22.60;99.90;;;;;;5113034;28;20020;-59
2020/12/18 09:51:17;;;;;;;30.92;14.65;;;22.70;99.90;;;;;;5112846;28;20047;-59
2020/12/18 09:53:46;;;;;;;29.13;14.50;;;22.70;99.90;;;;;;5113359;28;20431;-59
2020/12/18 09:56:15;;;;;;;31.23;14.68;;;22.70;99.90;;;;;;5113187;28;20473;-58
2020/12/18 09:58:43;;;;;;;28.67;15.63;;;22.70;99.90;;;;;;5112652;28;20416;-59
2020/12/18 10:01:15;;;;;;;28.17;14.95;;;22.70;99.90;;;;;;5112638;28;20446;-59
2020/12/18 10:03:43;;;;;;;33.63;14.13;;;22.70;99.90;;;;;;5112920;28;20051;-59
2020/12/18 10:06:10;;;;;;;28.20;14.25;;;22.70;99.90;;;;;;5113344;28;20388;-60
2020/12/18 10:08:38;;;;;;;32.08;14.32;;;22.70;99.90;;;;;;5133418;28;20027;-59
2020/12/18 10:11:05;;;;;;;27.73;14.70;;;22.60;99.90;;;;;;5133321;28;20479;-60
2020/12/18 10:13:33;;;;;;;23.08;14.02;;;22.70;99.90;;;;;;5133285;28;20027;-59
2020/12/18 10:16:00;;;;;;;39.75;14.75;;;22.70;99.90;;;;;;5114252;28;20119;-58
2020/12/18 10:18:27;;;;;;;28.92;14.63;;;22.70;99.90;;;;;;5114418;28;20034;-58
2020/12/18 10:20:55;;;;;;;33.50;14.77;;;22.60;99.90;;;;;;5133098;28;20383;-59
2020/12/18 10:23:23;;;;;;;37.38;15.68;;;22.60;99.90;;;;;;5133331;28;20377;-60
2020/12/18 10:25:51;;;;;;;26.88;14.57;;;22.70;99.90;;;;;;5132879;28;20027;-59
2020/12/18 10:28:19;;;;;;;34.17;14.60;;;22.70;99.90;;;;;;5133426;28;20094;-58
2020/12/18 10:30:47;;;;;;;32.55;14.02;;;22.70;99.90;;;;;;5133199;27;20440;-59
2020/12/18 10:33:15;;;;;;;27.38;13.48;;;22.60;99.90;;;;;;5083931;27;20032;-58
2020/12/18 10:35:42;;;;;;;30.02;14.07;;;22.60;99.90;;;;;;5136688;27;20031;-58
2020/12/18 10:38:10;;;;;;;27.25;13.55;;;22.60;99.90;;;;;;5136678;27;20475;-59
2020/12/18 10:40:38;;;;;;;34.38;13.15;;;22.50;99.90;;;;;;5137154;27;20027;-59
2020/12/18 10:43:05;;;;;;;26.92;12.60;;;22.50;99.90;;;;;;5136866;27;20020;-59
2020/12/18 10:45:32;;;;;;;32.10;13.27;;;22.50;99.90;;;;;;5136600;27;20043;-59
2020/12/18 10:48:00;;;;;;;42.53;13.70;;;22.40;99.90;;;;;;5136749;27;20031;-58
2020/12/18 10:50:28;;;;;;;30.63;12.80;;;22.40;99.90;;;;;;5136795;27;20028;-59
2020/12/18 10:52:55;;;;;;;28.08;13.77;;;22.40;99.90;;;;;;5136213;27;20080;-58
2020/12/18 10:55:23;;;;;;;31.33;12.68;;;22.40;99.90;;;;;;5136433;27;20089;-59
2020/12/18 10:57:51;;;;;;;22.02;13.05;;;22.40;99.90;;;;;;5083644;27;20035;-60
2020/12/18 11:00:19;;;;;;;25.42;12.48;;;22.50;99.90;;;;;;5136760;27;20027;-60
2020/12/18 11:02:46;;;;;;;28.48;13.60;;;22.70;99.90;;;;;;5136767;27;20493;-59
2020/12/18 11:05:14;;;;;;;27.80;12.50;;;22.60;99.90;;;;;;5136579;27;20031;-58
2020/12/18 11:07:42;;;;;;;25.67;12.43;;;22.60;99.90;;;;;;5136377;27;20407;-59
2020/12/18 11:10:09;;;;;;;27.10;11.55;;;22.50;99.90;;;;;;5136731;27;20027;-59
2020/12/18 11:12:37;;;;;;;28.10;13.02;;;22.50;99.90;;;;;;5136541;27;20028;-60
2020/12/18 11:15:04;;;;;;;22.02;12.02;;;22.40;99.90;;;;;;5137347;27;20020;-59
2020/12/18 11:17:32;;;;;;;23.25;12.15;;;22.40;99.90;;;;;;5137004;27;20031;-60
2020/12/18 11:20:00;;;;;;;31.10;12.52;;;22.40;99.90;;;;;;5136219;27;20050;-59
2020/12/18 11:22:27;;;;;;;31.83;13.23;;;22.30;99.90;;;;;;5136027;27;20463;-59
2020/12/18 11:24:55;;;;;;;22.35;12.07;;;22.30;99.90;;;;;;5136558;27;20027;-59
2020/12/18 11:27:22;;;;;;;27.63;12.02;;;22.30;99.90;;;;;;5135456;27;20019;-59
2020/12/18 11:29:50;;;;;;;22.65;11.88;;;22.30;99.90;;;;;;5117815;27;20021;-60
2020/12/18 11:32:20;;;;;;;20.67;12.23;;;22.30;99.90;;;;;;5136063;27;20394;-59
2020/12/18 11:34:48;;;;;;;28.08;12.23;;;22.30;99.90;;;;;;5135703;27;20110;-59
2020/12/18 11:37:16;;;;;;;31.27;11.73;;;22.30;99.90;;;;;;5117243;27;20408;-59
2020/12/18 11:39:44;;;;;;;26.35;12.90;;;22.30;99.90;;;;;;5117338;27;20058;-60
2020/12/18 11:42:12;;;;;;;25.00;12.43;;;22.20;99.90;;;;;;5135679;27;20066;-58
2020/12/18 11:44:39;;;;;;;23.95;11.88;;;22.20;99.90;;;;;;5134819;27;20046;-58
2020/12/18 11:47:07;;;;;;;26.75;13.68;;;22.10;99.90;;;;;;5135479;27;20023;-59
2020/12/18 11:49:35;;;;;;;24.25;12.80;;;22.10;99.90;;;;;;5135509;27;20019;-59
2020/12/18 11:52:04;;;;;;;25.08;12.95;;;22.10;99.90;;;;;;5135754;27;20024;-59
2020/12/18 11:54:32;;;;;;;27.42;12.85;;;22.10;99.90;;;;;;5135594;27;20023;-59
2020/12/18 11:57:00;;;;;;;25.67;13.00;;;22.10;99.90;;;;;;5135745;27;20443;-59
2020/12/18 11:59:27;;;;;;;26.63;12.48;;;22.10;99.90;;;;;;5135616;27;20525;-59
2020/12/18 12:01:55;;;;;;;25.85;12.10;;;22.10;99.90;;;;;;5135443;27;20023;-59
2020/12/18 12:04:22;;;;;;;20.13;11.50;;;22.20;99.90;;;;;;5135497;27;20019;-59
2020/12/18 12:06:50;;;;;;;21.00;11.60;;;22.20;99.90;;;;;;5135177;27;20043;-59
2020/12/18 12:09:19;;;;;;;26.05;11.30;;;22.20;99.90;;;;;;5135540;27;20025;-59
2020/12/18 12:11:46;;;;;;;30.00;12.07;;;22.10;99.90;;;;;;5135079;27;20027;-58
2020/12/18 12:14:14;;;;;;;27.40;12.00;;;22.20;99.90;;;;;;5135396;27;20359;-59
2020/12/18 12:16:42;;;;;;;27.05;12.35;;;22.20;99.90;;;;;;5116164;27;20039;-59
2020/12/18 12:19:10;;;;;;;29.35;11.95;;;22.10;99.90;;;;;;5135019;27;20047;-59
2020/12/18 12:21:39;;;;;;;28.20;12.07;;;22.10;99.90;;;;;;5134665;27;20023;-59
2020/12/18 12:24:07;;;;;;;25.13;11.35;;;22.10;99.90;;;;;;5135037;27;20023;-60
2020/12/18 12:26:35;;;;;;;22.10;11.18;;;22.10;99.90;;;;;;5134881;27;20029;-60
2020/12/18 12:29:03;;;;;;;32.42;12.70;;;22.00;99.90;;;;;;5134627;27;20077;-59
2020/12/18 12:31:31;;;;;;;29.17;11.27;;;22.00;99.90;;;;;;5134861;27;20034;-59
2020/12/18 12:33:58;;;;;;;25.92;11.27;;;22.00;99.90;;;;;;5134817;27;20026;-58
2020/12/18 12:36:27;;;;;;;25.88;12.27;;;22.00;99.90;;;;;;5134679;27;20085;-58
2020/12/18 12:38:54;;;;;;;24.20;11.70;;;21.90;99.90;;;;;;5134868;27;20031;-59
2020/12/18 12:41:24;;;;;;;28.55;11.45;;;21.90;99.90;;;;;;5115820;27;20035;-60
2020/12/18 12:43:52;;;;;;;27.38;11.27;;;21.90;99.90;;;;;;5081730;27;20035;-59
2020/12/18 12:46:20;;;;;;;25.90;10.68;;;21.80;99.90;;;;;;5134558;27;20019;-59
2020/12/18 12:48:49;;;;;;;27.60;11.35;;;21.90;99.90;;;;;;5116051;27;20024;-59
2020/12/18 12:51:17;;;;;;;24.80;10.70;;;21.80;99.90;;;;;;5134451;27;20050;-59